Terminal Aerodrome Forecast
Issued by NWS Louisville, KY

Home | Current Version | Previous Version | Text Only | Print | Product List | Glossary On
Versions: 1 2 3 4 5 6 7 8 9 10 11 12 13 14 15 16 17
000
FTUS43 KLMK 222200 AAA
TAFBWG
TAF AMD
KBWG 222219Z 2222/2318 15010KT P6SM OVC025
     FM230000 16010KT P6SM VCSH OVC015
     FM230300 17012KT 4SM -SHRA BR OVC008 WS020/21045KT
     FM231100 21008KT P6SM VCSH BKN020=

USA.gov is the U.S. government's official web portal to all federal, state and local government web resources and services.